Time;durP1;ratioP1;P1;durP2;ratioP2;P2;SDS_P1;SDS_P2;PMS_P1;PMS_P2;Temp;Humidity;BMP_temperature;BMP_pressure;BME280_temperature;BME280_humidity;BME280_pressure;Samples;Min_cycle;Max_cycle;Signal;HPM_P1;HPM_P2
2024/03/03 00:02:10;;;;;;;7.93;6.50;;;19.20;75.50;;;;;;5079123;28;20365;-65
2024/03/03 00:04:36;;;;;;;8.05;6.75;;;19.20;75.50;;;;;;5082442;28;20024;-65
2024/03/03 00:07:02;;;;;;;6.93;5.82;;;19.20;75.50;;;;;;5064939;28;20433;-65
2024/03/03 00:09:28;;;;;;;9.10;6.53;;;19.20;75.50;;;;;;5057408;28;20029;-66
2024/03/03 00:11:54;;;;;;;7.25;6.13;;;19.20;75.50;;;;;;5057198;28;20498;-66
2024/03/03 00:14:21;;;;;;;8.95;6.75;;;19.20;75.50;;;;;;5068901;28;20065;-64
2024/03/03 00:16:47;;;;;;;6.95;5.93;;;19.20;75.60;;;;;;5055488;28;20029;-65
2024/03/03 00:19:12;;;;;;;7.95;6.45;;;19.20;75.50;;;;;;5053530;28;20045;-63
2024/03/03 00:21:38;;;;;;;8.52;6.35;;;19.20;75.50;;;;;;5052193;28;20029;-66
2024/03/03 00:24:04;;;;;;;11.88;5.80;;;19.20;75.60;;;;;;5053980;28;20029;-65
2024/03/03 00:26:32;;;;;;;9.50;6.38;;;19.20;75.60;;;;;;5053016;28;20104;-65
2024/03/03 00:28:58;;;;;;;9.35;6.32;;;19.30;75.70;;;;;;5054493;28;20017;-65
2024/03/03 00:31:24;;;;;;;8.25;6.35;;;19.20;75.80;;;;;;5052181;28;20031;-66
2024/03/03 00:33:49;;;;;;;8.00;6.03;;;19.20;75.90;;;;;;5066168;28;20029;-66
2024/03/03 00:36:15;;;;;;;7.97;6.40;;;19.20;75.90;;;;;;5053530;28;20036;-67
2024/03/03 00:38:41;;;;;;;10.45;6.70;;;19.20;76.00;;;;;;5053243;28;20028;-67
2024/03/03 00:41:07;;;;;;;18.15;5.63;;;19.20;76.00;;;;;;5051533;28;20309;-64
2024/03/03 00:43:33;;;;;;;7.53;5.65;;;19.20;76.20;;;;;;5054914;28;20032;-64
2024/03/03 00:45:59;;;;;;;7.40;6.20;;;19.20;76.20;;;;;;5053432;28;20024;-66
2024/03/03 00:48:24;;;;;;;11.18;6.13;;;19.20;76.40;;;;;;5053151;28;20028;-65
2024/03/03 00:50:50;;;;;;;7.35;5.80;;;19.30;76.30;;;;;;5052381;28;20028;-65
2024/03/03 00:53:16;;;;;;;8.68;5.60;;;19.30;76.40;;;;;;5053891;28;20100;-64
2024/03/03 00:55:46;;;;;;;8.18;6.00;;;19.20;76.40;;;;;;5053068;28;20404;-66
2024/03/03 00:58:15;;;;;;;9.52;5.13;;;19.20;76.50;;;;;;5053285;28;20028;-65
2024/03/03 01:00:41;;;;;;;6.72;4.93;;;19.20;76.50;;;;;;5058763;28;20518;-65
2024/03/03 01:03:07;;;;;;;7.55;5.35;;;19.30;76.60;;;;;;5055488;28;20028;-65
2024/03/03 01:05:33;;;;;;;8.45;6.00;;;19.20;76.60;;;;;;5053315;28;20035;-65
2024/03/03 01:07:59;;;;;;;6.88;5.00;;;19.30;76.60;;;;;;5064580;28;20061;-66
2024/03/03 01:10:25;;;;;;;8.77;5.68;;;19.20;76.60;;;;;;5052438;28;20437;-65
2024/03/03 01:12:51;;;;;;;9.55;5.68;;;19.20;76.70;;;;;;5052344;28;20024;-66
2024/03/03 01:15:17;;;;;;;8.23;4.93;;;19.20;76.70;;;;;;5052875;28;20443;-64
2024/03/03 01:17:43;;;;;;;9.02;5.07;;;19.20;76.70;;;;;;5052620;28;20033;-65
2024/03/03 01:20:09;;;;;;;5.82;4.97;;;19.20;76.70;;;;;;5052361;28;20029;-65
2024/03/03 01:22:36;;;;;;;7.18;5.25;;;19.20;76.70;;;;;;5051775;28;20034;-65
2024/03/03 01:25:02;;;;;;;7.53;5.28;;;19.20;76.70;;;;;;5057769;28;20430;-66
2024/03/03 01:27:27;;;;;;;8.55;5.00;;;19.20;76.80;;;;;;5052979;28;20029;-65
2024/03/03 01:29:53;;;;;;;5.70;5.10;;;19.30;76.80;;;;;;5052296;28;20066;-66
2024/03/03 01:32:18;;;;;;;7.90;5.35;;;19.30;76.80;;;;;;5051722;28;20024;-65
2024/03/03 01:34:44;;;;;;;7.38;5.10;;;19.30;76.90;;;;;;5051377;28;20025;-65
2024/03/03 01:37:10;;;;;;;10.77;4.65;;;19.20;77.00;;;;;;5059977;28;20028;-65
2024/03/03 01:39:38;;;;;;;7.00;5.47;;;19.20;76.90;;;;;;5052473;28;20025;-65
2024/03/03 01:42:05;;;;;;;5.88;5.07;;;19.20;76.90;;;;;;5051494;28;20031;-66
2024/03/03 01:44:30;;;;;;;8.18;5.53;;;19.30;77.00;;;;;;5052187;28;20021;-65
2024/03/03 01:46:57;;;;;;;6.78;4.80;;;19.30;77.10;;;;;;5052198;28;20400;-65
2024/03/03 01:49:23;;;;;;;6.43;5.15;;;19.30;77.10;;;;;;5052393;28;20047;-66
2024/03/03 01:51:48;;;;;;;6.75;5.40;;;19.30;77.00;;;;;;5051018;28;20033;-65
2024/03/03 01:54:14;;;;;;;7.47;5.55;;;19.30;77.00;;;;;;5050995;28;20028;-65
2024/03/03 01:56:46;;;;;;;6.30;4.72;;;19.30;77.00;;;;;;5055347;28;20052;-65
2024/03/03 01:59:11;;;;;;;;;;;19.40;77.00;;;;;;5052456;28;20036;-65
2024/03/03 02:01:38;;;;;;;7.63;5.10;;;19.40;76.90;;;;;;5051416;28;19913;-65
2024/03/03 02:04:07;;;;;;;6.32;4.43;;;19.40;76.90;;;;;;5051932;28;20048;-66
2024/03/03 02:06:34;;;;;;;5.32;4.35;;;19.40;77.00;;;;;;5058843;28;20104;-66
2024/03/03 02:09:01;;;;;;;6.88;5.40;;;19.40;76.90;;;;;;5051733;28;20033;-66
2024/03/03 02:11:28;;;;;;;5.97;4.70;;;19.40;76.90;;;;;;5051160;28;20124;-66
2024/03/03 02:13:53;;;;;;;6.72;5.07;;;19.40;77.00;;;;;;5051901;28;20029;-65
2024/03/03 02:16:19;;;;;;;5.47;4.47;;;19.40;77.00;;;;;;5063395;28;20024;-65
2024/03/03 02:18:45;;;;;;;6.30;4.80;;;19.40;77.10;;;;;;5051264;28;20025;-65
2024/03/03 02:21:11;;;;;;;6.30;5.32;;;19.40;77.00;;;;;;5050723;28;20035;-66
2024/03/03 02:23:36;;;;;;;6.65;4.65;;;19.40;77.10;;;;;;5060671;28;20056;-66
2024/03/03 02:26:03;;;;;;;5.75;4.55;;;19.40;77.00;;;;;;5051638;28;20021;-66
2024/03/03 02:28:29;;;;;;;6.30;4.05;;;19.40;77.00;;;;;;5051469;28;20032;-66
2024/03/03 02:30:55;;;;;;;6.22;5.13;;;19.40;77.00;;;;;;5050738;28;20113;-66
2024/03/03 02:33:20;;;;;;;5.35;4.53;;;19.40;77.00;;;;;;5051764;28;20108;-65
2024/03/03 02:35:46;;;;;;;5.00;4.50;;;19.40;77.00;;;;;;5051394;28;20033;-66
2024/03/03 02:38:12;;;;;;;5.60;4.20;;;19.40;77.00;;;;;;5051326;28;20532;-66
2024/03/03 02:40:37;;;;;;;5.97;4.55;;;19.40;77.00;;;;;;5050591;28;20151;-65
2024/03/03 02:43:05;;;;;;;6.28;4.18;;;19.40;76.90;;;;;;5051201;28;20104;-66
2024/03/03 02:45:31;;;;;;;5.25;4.65;;;19.40;77.10;;;;;;5054492;28;20016;-66
2024/03/03 02:47:57;;;;;;;5.82;4.40;;;19.40;77.00;;;;;;5049765;28;20028;-66
2024/03/03 02:50:23;;;;;;;7.10;4.68;;;19.40;76.90;;;;;;5050979;28;20060;-65
2024/03/03 02:52:49;;;;;;;6.03;4.45;;;19.40;77.00;;;;;;5051054;28;20036;-66
2024/03/03 02:55:14;;;;;;;5.85;4.82;;;19.40;77.00;;;;;;5058777;28;20020;-64
2024/03/03 02:57:40;;;;;;;5.28;4.38;;;19.40;77.00;;;;;;5051633;28;20025;-66
2024/03/03 03:00:06;;;;;;;5.53;4.50;;;19.40;77.00;;;;;;5065089;28;20025;-66
2024/03/03 03:02:32;;;;;;;5.60;4.72;;;19.40;77.00;;;;;;5050582;28;20108;-66
2024/03/03 03:04:58;;;;;;;5.43;4.47;;;19.40;77.00;;;;;;5060951;28;20100;-66
2024/03/03 03:07:24;;;;;;;7.18;4.55;;;19.40;77.00;;;;;;5057387;28;20032;-64
2024/03/03 03:09:50;;;;;;;4.63;4.13;;;19.40;77.00;;;;;;5055524;28;20029;-66
2024/03/03 03:12:16;;;;;;;5.22;4.72;;;19.40;77.10;;;;;;5054721;28;20017;-66
2024/03/03 03:14:42;;;;;;;5.18;4.55;;;19.40;77.10;;;;;;5055227;28;20075;-66
2024/03/03 03:17:07;;;;;;;4.88;4.38;;;19.40;77.30;;;;;;5055139;28;20107;-65
2024/03/03 03:19:33;;;;;;;5.07;4.57;;;19.40;77.20;;;;;;5057315;28;20109;-65
2024/03/03 03:21:59;;;;;;;6.40;4.75;;;19.40;77.20;;;;;;5064334;28;20079;-65
2024/03/03 03:24:26;;;;;;;4.38;3.97;;;19.40;77.20;;;;;;5060492;28;20365;-65
2024/03/03 03:26:52;;;;;;;4.15;3.70;;;19.40;77.30;;;;;;5063273;28;20489;-65
2024/03/03 03:29:18;;;;;;;5.22;4.15;;;19.40;77.70;;;;;;5055445;28;20060;-64
2024/03/03 03:31:44;;;;;;;5.35;4.45;;;19.40;77.70;;;;;;5065508;28;20104;-65
2024/03/03 03:34:11;;;;;;;5.18;4.18;;;19.40;78.10;;;;;;5069170;28;20416;-66
2024/03/03 03:36:36;;;;;;;5.15;4.45;;;19.40;78.30;;;;;;5055715;28;20025;-65
2024/03/03 03:39:10;;;;;;;4.68;4.20;;;19.40;78.20;;;;;;5060737;28;20389;-65
2024/03/03 03:41:43;;;;;;;4.43;3.83;;;19.40;78.20;;;;;;5054635;28;20086;-65
2024/03/03 03:44:09;;;;;;;4.63;4.00;;;19.40;78.10;;;;;;5062144;28;20115;-65
2024/03/03 03:46:35;;;;;;;4.70;3.92;;;19.50;78.30;;;;;;5066840;28;20100;-65
2024/03/03 03:49:01;;;;;;;4.18;3.78;;;19.50;78.40;;;;;;5068048;28;20104;-64
2024/03/03 03:51:26;;;;;;;5.35;4.10;;;19.40;78.30;;;;;;5053474;28;20029;-64
2024/03/03 03:53:52;;;;;;;4.68;4.03;;;19.50;78.40;;;;;;5062018;28;20033;-65
2024/03/03 03:56:17;;;;;;;4.50;4.07;;;19.50;78.50;;;;;;5070048;28;20028;-65
2024/03/03 03:58:43;;;;;;;4.80;4.30;;;19.50;78.30;;;;;;5066606;28;20024;-65
2024/03/03 04:01:08;;;;;;;5.25;3.90;;;19.50;78.30;;;;;;5080857;28;20044;-65
2024/03/03 04:03:34;;;;;;;4.70;4.20;;;19.50;78.30;;;;;;5075746;28;20025;-65
2024/03/03 04:06:00;;;;;;;5.47;4.15;;;19.50;78.10;;;;;;5065776;28;20029;-65
2024/03/03 04:08:25;;;;;;;5.88;4.28;;;19.50;78.20;;;;;;5079163;28;20044;-65
2024/03/03 04:10:51;;;;;;;4.05;3.65;;;19.50;78.30;;;;;;5062475;28;20033;-66
2024/03/03 04:13:16;;;;;;;4.68;4.07;;;19.50;78.30;;;;;;5069834;28;20032;-65
2024/03/03 04:15:42;;;;;;;4.43;4.03;;;19.50;78.10;;;;;;5071677;28;20067;-64
2024/03/03 04:18:08;;;;;;;4.25;3.85;;;19.50;78.10;;;;;;5061538;28;20032;-64
2024/03/03 04:20:33;;;;;;;4.13;3.72;;;19.50;78.00;;;;;;5069666;28;20032;-65
2024/03/03 04:22:59;;;;;;;5.10;4.20;;;19.50;78.00;;;;;;5059449;28;20100;-65
2024/03/03 04:25:24;;;;;;;3.55;3.25;;;19.50;78.00;;;;;;5063114;28;20392;-63
2024/03/03 04:27:50;;;;;;;7.75;3.95;;;19.50;78.00;;;;;;5057461;28;20089;-66
2024/03/03 04:30:16;;;;;;;7.65;4.13;;;19.50;78.20;;;;;;5071368;28;20129;-66
2024/03/03 04:32:41;;;;;;;6.47;3.65;;;19.50;78.20;;;;;;5062317;28;20020;-66
2024/03/03 04:35:07;;;;;;;9.50;4.28;;;19.50;78.10;;;;;;5060390;28;20028;-64
2024/03/03 04:37:33;;;;;;;4.35;3.92;;;19.50;77.90;;;;;;5062377;28;20029;-65
2024/03/03 04:39:59;;;;;;;4.22;3.83;;;19.50;77.90;;;;;;5058838;28;20039;-65
2024/03/03 04:42:25;;;;;;;3.80;3.50;;;19.50;77.90;;;;;;5064730;28;20017;-65
2024/03/03 04:44:50;;;;;;;4.03;3.63;;;19.50;78.00;;;;;;5060409;28;20028;-66
2024/03/03 04:47:16;;;;;;;3.60;3.30;;;19.50;77.90;;;;;;5053705;28;20071;-65
2024/03/03 04:49:41;;;;;;;3.42;3.13;;;19.50;77.90;;;;;;5062275;28;20119;-61
2024/03/03 04:52:07;;;;;;;4.25;3.60;;;19.50;77.80;;;;;;5060216;28;20025;-65
2024/03/03 04:54:33;;;;;;;4.35;3.20;;;19.40;77.70;;;;;;5061629;28;20365;-65
2024/03/03 04:57:00;;;;;;;3.83;3.42;;;19.40;77.60;;;;;;5053176;28;20059;-64
2024/03/03 04:59:26;;;;;;;4.20;3.80;;;19.50;77.70;;;;;;5068865;28;20103;-64
2024/03/03 05:01:51;;;;;;;4.63;3.10;;;19.40;78.00;;;;;;5059951;28;20104;-65
2024/03/03 05:04:17;;;;;;;4.10;3.60;;;19.50;78.10;;;;;;5066272;28;20051;-65
2024/03/03 05:06:48;;;;;;;5.15;3.75;;;19.40;78.10;;;;;;5070117;28;20139;-65
2024/03/03 05:09:14;;;;;;;4.00;3.60;;;19.40;78.10;;;;;;5060454;28;20024;-62
2024/03/03 05:11:40;;;;;;;4.13;3.40;;;19.50;78.00;;;;;;5052683;28;20052;-65
2024/03/03 05:14:05;;;;;;;5.75;3.38;;;19.40;78.00;;;;;;5053073;28;20021;-64
2024/03/03 05:16:31;;;;;;;5.25;3.80;;;19.40;77.90;;;;;;5052856;28;20052;-64
2024/03/03 05:18:56;;;;;;;4.97;3.75;;;19.40;77.80;;;;;;5052880;28;20032;-65
2024/03/03 05:21:22;;;;;;;4.13;3.72;;;19.40;78.00;;;;;;5060778;28;20107;-63
2024/03/03 05:23:47;;;;;;;3.78;3.45;;;19.40;78.00;;;;;;5052990;28;20029;-65
2024/03/03 05:26:16;;;;;;;3.35;3.05;;;19.50;78.00;;;;;;5054696;28;20512;-65
2024/03/03 05:28:42;;;;;;;3.83;3.15;;;19.40;77.90;;;;;;5052762;28;20392;-65
2024/03/03 05:31:08;;;;;;;4.07;3.33;;;19.40;77.80;;;;;;5051899;28;20032;-65
2024/03/03 05:33:36;;;;;;;3.45;3.15;;;19.40;77.70;;;;;;5063187;28;20119;-65
2024/03/03 05:36:02;;;;;;;3.47;3.17;;;19.50;77.60;;;;;;5058484;28;20048;-65
2024/03/03 05:38:27;;;;;;;3.75;3.20;;;19.50;77.70;;;;;;5069532;28;20024;-65
2024/03/03 05:40:53;;;;;;;4.22;3.63;;;19.50;77.60;;;;;;5066155;28;20497;-65
2024/03/03 05:43:19;;;;;;;4.25;3.85;;;19.50;77.60;;;;;;5053112;28;20021;-64
2024/03/03 05:45:45;;;;;;;3.28;2.97;;;19.50;77.70;;;;;;5054582;28;20508;-65
2024/03/03 05:48:10;;;;;;;4.82;3.47;;;19.50;77.70;;;;;;5052240;28;20032;-65
2024/03/03 05:50:36;;;;;;;3.63;3.33;;;19.60;77.80;;;;;;5053896;28;20029;-63
2024/03/03 05:53:03;;;;;;;4.13;3.72;;;19.60;77.70;;;;;;5057056;28;20025;-65
2024/03/03 05:55:29;;;;;;;4.03;3.10;;;19.60;77.60;;;;;;5052728;28;20562;-65
2024/03/03 05:57:54;;;;;;;4.55;3.38;;;19.60;77.60;;;;;;5052643;28;20029;-65
2024/03/03 06:00:20;;;;;;;4.20;3.67;;;19.60;77.80;;;;;;5060190;28;20021;-65
2024/03/03 06:02:45;;;;;;;3.70;3.40;;;19.60;77.80;;;;;;5062350;28;20063;-63
2024/03/03 06:05:11;;;;;;;4.13;3.70;;;19.50;77.70;;;;;;5058958;28;20107;-66
2024/03/03 06:07:37;;;;;;;4.68;3.40;;;19.60;78.20;;;;;;5052663;28;20096;-66
2024/03/03 06:10:04;;;;;;;4.35;3.28;;;19.60;78.20;;;;;;5051577;28;20033;-66
2024/03/03 06:12:30;;;;;;;5.88;3.50;;;19.60;78.40;;;;;;5074890;23;20052;-60
2024/03/03 06:14:55;;;;;;;8.98;3.30;;;19.60;78.30;;;;;;5076982;28;20086;-60
2024/03/03 06:17:21;;;;;;;3.58;3.00;;;19.60;78.30;;;;;;5068695;28;20021;-63
2024/03/03 06:19:47;;;;;;;54.58;11.77;;;19.60;78.50;;;;;;5069296;28;20694;-64
2024/03/03 06:22:12;;;;;;;15.82;12.05;;;19.50;71.70;;;;;;5059560;28;20033;-64
2024/03/03 06:24:38;;;;;;;14.77;12.02;;;17.70;60.40;;;;;;5050418;28;20025;-64
2024/03/03 06:27:04;;;;;;;15.38;13.10;;;16.70;65.00;;;;;;5050635;28;20025;-64
2024/03/03 06:29:30;;;;;;;17.85;13.23;;;16.00;66.60;;;;;;5051124;28;20029;-64
2024/03/03 06:31:55;;;;;;;19.27;13.50;;;16.10;67.00;;;;;;5056460;28;20031;-64
2024/03/03 06:34:21;;;;;;;15.38;11.55;;;16.40;66.00;;;;;;5058434;28;20064;-63
2024/03/03 06:36:46;;;;;;;14.48;12.05;;;16.60;64.80;;;;;;5058875;28;20047;-64
2024/03/03 06:39:14;;;;;;;19.52;12.60;;;16.90;66.40;;;;;;5049936;28;20468;-65
2024/03/03 06:41:42;;;;;;;18.17;12.98;;;17.10;65.00;;;;;;5056813;28;20033;-65
2024/03/03 06:44:07;;;;;;;17.38;12.93;;;17.20;62.40;;;;;;5049520;28;20384;-64
2024/03/03 06:46:33;;;;;;;20.55;13.10;;;17.30;60.90;;;;;;5050270;28;20040;-64
2024/03/03 06:48:59;;;;;;;18.98;13.00;;;17.30;59.80;;;;;;5050039;28;20090;-64
2024/03/03 06:51:24;;;;;;;13.98;12.02;;;17.40;58.90;;;;;;5066570;28;20028;-64
2024/03/03 06:53:50;;;;;;;16.17;12.50;;;17.40;59.00;;;;;;5058053;28;20033;-65
2024/03/03 06:56:17;;;;;;;18.58;12.98;;;17.40;57.90;;;;;;5057795;28;20095;-64
2024/03/03 06:58:44;;;;;;;15.52;12.55;;;17.40;58.80;;;;;;5050585;28;20104;-65
2024/03/03 07:01:11;;;;;;;16.38;13.02;;;17.40;57.80;;;;;;5049392;28;20033;-65
2024/03/03 07:04:04;;;;;;;15.75;12.77;;;17.30;58.20;;;;;;5058158;28;20108;-64
2024/03/03 07:06:28;;;;;;;;;;;17.30;57.90;;;;;;5050610;28;20025;-61
2024/03/03 07:08:53;;;;;;;15.18;10.52;;;17.30;57.90;;;;;;5050271;28;19952;-62
2024/03/03 07:11:19;;;;;;;13.07;9.32;;;17.50;64.30;;;;;;5065570;28;20411;-62
2024/03/03 07:13:45;;;;;;;12.45;9.07;;;17.70;67.40;;;;;;5053524;28;20036;-63
2024/03/03 07:16:10;;;;;;;11.70;8.57;;;17.90;68.50;;;;;;5054519;28;20032;-62
2024/03/03 07:18:36;;;;;;;16.10;8.20;;;18.00;69.10;;;;;;5058252;28;20020;-63
2024/03/03 07:21:01;;;;;;;16.00;9.15;;;18.10;69.90;;;;;;5054918;28;20380;-65
2024/03/03 07:23:27;;;;;;;19.50;12.55;;;18.30;70.80;;;;;;5053167;28;20433;-66
2024/03/03 07:25:53;;;;;;;17.52;12.07;;;18.20;66.10;;;;;;5065258;28;20044;-69
2024/03/03 07:28:18;;;;;;;21.50;13.80;;;18.30;67.80;;;;;;5057347;28;20747;-65
2024/03/03 07:30:44;;;;;;;21.23;10.73;;;18.20;63.80;;;;;;5052427;28;20017;-65
2024/03/03 07:33:09;;;;;;;16.70;9.18;;;18.40;68.80;;;;;;5053751;28;20029;-65
2024/03/03 07:35:35;;;;;;;18.05;9.32;;;18.50;70.30;;;;;;5050572;28;20021;-65
2024/03/03 07:38:01;;;;;;;29.85;8.98;;;18.50;71.80;;;;;;5062665;28;20059;-64
2024/03/03 07:40:30;;;;;;;12.75;7.88;;;18.60;72.30;;;;;;5050624;28;20025;-66
2024/03/03 07:42:56;;;;;;;15.23;8.73;;;18.70;72.80;;;;;;5049428;28;20021;-65
2024/03/03 07:45:22;;;;;;;17.50;10.07;;;18.70;72.90;;;;;;5050507;28;20025;-65
2024/03/03 07:47:47;;;;;;;18.50;9.25;;;18.80;73.10;;;;;;5050045;28;20497;-65
2024/03/03 07:50:13;;;;;;;15.23;9.18;;;18.90;73.10;;;;;;5067217;28;20460;-65
2024/03/03 07:52:39;;;;;;;14.93;9.45;;;18.90;73.00;;;;;;5061535;28;20029;-64
2024/03/03 07:55:05;;;;;;;17.40;8.93;;;18.90;72.90;;;;;;5067602;28;20074;-65
2024/03/03 07:57:31;;;;;;;13.07;8.27;;;19.00;72.70;;;;;;5057275;28;20036;-65
2024/03/03 07:59:57;;;;;;;15.45;8.55;;;19.00;72.70;;;;;;5060317;28;20025;-65
2024/03/03 08:02:23;;;;;;;19.77;8.77;;;19.00;72.50;;;;;;5061267;28;20016;-65
2024/03/03 08:04:52;;;;;;;13.73;8.13;;;19.00;72.40;;;;;;5054002;28;20025;-65
2024/03/03 08:07:18;;;;;;;10.48;7.63;;;19.10;72.40;;;;;;5054273;28;20478;-63
2024/03/03 08:09:44;;;;;;;12.10;8.43;;;19.10;72.20;;;;;;5053626;28;20124;-64
2024/03/03 08:12:09;;;;;;;13.18;8.18;;;19.10;72.20;;;;;;5059281;28;20047;-64
2024/03/03 08:14:35;;;;;;;13.68;7.75;;;19.20;72.20;;;;;;5062208;28;20098;-65
2024/03/03 08:17:00;;;;;;;14.45;8.23;;;19.20;72.10;;;;;;5053525;28;20033;-65
2024/03/03 08:19:27;;;;;;;12.32;7.60;;;19.20;72.10;;;;;;5068493;28;20448;-65
2024/03/03 08:21:54;;;;;;;28.13;9.25;;;19.30;72.10;;;;;;5052391;28;20424;-65
2024/03/03 08:24:20;;;;;;;24.75;14.73;;;19.30;72.60;;;;;;5060453;28;20791;-67
2024/03/03 08:26:49;;;;;;;15.70;12.88;;;18.70;55.60;;;;;;5056585;28;20024;-65
2024/03/03 08:29:14;;;;;;;16.35;13.13;;;18.00;54.20;;;;;;5056416;28;20029;-65
2024/03/03 08:31:41;;;;;;;14.07;11.93;;;17.10;55.00;;;;;;5052987;28;20022;-65
2024/03/03 08:34:08;;;;;;;16.50;13.20;;;16.70;56.20;;;;;;5060247;28;20413;-65
2024/03/03 08:36:33;;;;;;;18.17;13.43;;;16.40;57.70;;;;;;5062158;28;20053;-65
2024/03/03 08:38:59;;;;;;;19.08;13.02;;;16.10;57.10;;;;;;5063700;28;20513;-65
2024/03/03 08:41:24;;;;;;;17.35;13.27;;;15.90;58.60;;;;;;5055306;28;20091;-65
2024/03/03 08:43:50;;;;;;;15.88;12.40;;;15.80;59.60;;;;;;5068057;28;20021;-65
2024/03/03 08:46:16;;;;;;;19.30;13.00;;;15.60;60.60;;;;;;5060058;28;20021;-65
2024/03/03 08:48:41;;;;;;;21.40;12.95;;;15.50;59.50;;;;;;5052952;28;20485;-65
2024/03/03 08:51:08;;;;;;;22.05;12.55;;;15.50;59.60;;;;;;5060479;28;20071;-65
2024/03/03 08:53:34;;;;;;;18.92;12.23;;;15.80;63.60;;;;;;5070989;28;20025;-64
2024/03/03 08:56:00;;;;;;;33.72;13.77;;;16.10;66.90;;;;;;5064494;28;20046;-64
2024/03/03 08:58:26;;;;;;;32.42;15.38;;;16.40;68.00;;;;;;5055398;28;20518;-63
2024/03/03 09:00:51;;;;;;;24.92;15.93;;;16.70;68.50;;;;;;5055300;28;20037;-60
2024/03/03 09:03:18;;;;;;;34.00;18.35;;;16.90;68.90;;;;;;5057149;28;20024;-62
2024/03/03 09:05:44;;;;;;;29.63;16.60;;;17.10;69.30;;;;;;5061142;28;20172;-62
2024/03/03 09:08:09;;;;;;;34.78;15.90;;;17.20;69.30;;;;;;5066663;28;20031;-63
2024/03/03 09:10:35;;;;;;;26.85;14.52;;;17.40;69.60;;;;;;5070375;28;20032;-60
2024/03/03 09:13:01;;;;;;;26.67;15.57;;;17.50;69.90;;;;;;5067990;28;20483;-61
2024/03/03 09:15:26;;;;;;;21.27;14.02;;;17.60;70.20;;;;;;5063173;28;20028;-61
2024/03/03 09:17:52;;;;;;;19.50;13.15;;;17.70;70.20;;;;;;5060304;28;20473;-62
2024/03/03 09:20:17;;;;;;;26.42;13.45;;;17.80;70.10;;;;;;5059812;28;20020;-62
2024/03/03 09:22:43;;;;;;;23.30;12.25;;;18.00;70.30;;;;;;5070708;28;20017;-64
2024/03/03 09:25:09;;;;;;;24.50;13.50;;;18.00;70.20;;;;;;5064682;28;20025;-64
2024/03/03 09:27:35;;;;;;;26.65;12.63;;;18.00;70.60;;;;;;5053798;28;20028;-65
2024/03/03 09:30:01;;;;;;;20.13;12.27;;;18.20;70.70;;;;;;5064274;28;20109;-64
2024/03/03 09:32:27;;;;;;;24.05;13.45;;;18.20;70.70;;;;;;5050612;28;20025;-64
2024/03/03 09:34:54;;;;;;;24.98;12.43;;;18.30;70.80;;;;;;5056787;28;20016;-65
2024/03/03 09:37:19;;;;;;;20.67;12.48;;;18.30;70.80;;;;;;5064063;28;20033;-64
2024/03/03 09:39:45;;;;;;;23.17;12.40;;;18.40;70.40;;;;;;5062559;28;20034;-64
2024/03/03 09:42:11;;;;;;;21.23;12.60;;;18.50;70.20;;;;;;5063013;28;20055;-64
2024/03/03 09:44:43;;;;;;;19.38;12.88;;;18.50;69.90;;;;;;5064038;28;20043;-65
2024/03/03 09:47:19;;;;;;;18.77;11.45;;;18.50;69.60;;;;;;5071174;28;20028;-64
2024/03/03 09:49:45;;;;;;;19.00;12.02;;;18.50;69.40;;;;;;5052057;28;20726;-64
2024/03/03 09:52:14;;;;;;;17.77;11.25;;;18.50;69.40;;;;;;5051002;28;20043;-64
2024/03/03 09:54:43;;;;;;;16.50;10.75;;;18.50;69.50;;;;;;5059947;28;20028;-65
2024/03/03 09:57:12;;;;;;;20.35;11.18;;;18.50;69.10;;;;;;5060310;28;20115;-65
2024/03/03 09:59:39;;;;;;;14.40;10.27;;;18.50;69.20;;;;;;5070418;28;20032;-65
2024/03/03 10:02:16;;;;;;;15.60;10.85;;;18.50;69.20;;;;;;5056425;28;20057;-64
2024/03/03 10:04:45;;;;;;;19.17;11.27;;;18.50;69.30;;;;;;5054172;28;20032;-65
2024/03/03 10:07:19;;;;;;;14.90;10.38;;;18.50;69.20;;;;;;5063478;28;20740;-65
2024/03/03 10:09:48;;;;;;;17.05;11.18;;;18.50;69.10;;;;;;5058594;28;20055;-64
2024/03/03 10:12:15;;;;;;;15.77;11.07;;;18.50;69.10;;;;;;5057403;28;20044;-64
2024/03/03 10:14:41;;;;;;;17.13;10.90;;;18.50;69.00;;;;;;5055059;28;20545;-65
2024/03/03 10:17:07;;;;;;;14.60;11.13;;;18.50;69.00;;;;;;5055879;28;20487;-65
2024/03/03 10:19:33;;;;;;;13.38;9.82;;;18.50;68.60;;;;;;5053756;28;20029;-65
2024/03/03 10:21:59;;;;;;;13.25;10.52;;;18.50;68.70;;;;;;5062753;28;20438;-65
2024/03/03 10:24:27;;;;;;;13.63;10.85;;;18.50;68.70;;;;;;5052940;28;20021;-64
2024/03/03 10:26:54;;;;;;;13.45;10.70;;;18.50;68.80;;;;;;5051408;28;20036;-64
2024/03/03 10:29:21;;;;;;;12.80;9.68;;;18.50;68.60;;;;;;5051933;28;20021;-64
2024/03/03 10:31:47;;;;;;;13.82;10.85;;;18.50;68.30;;;;;;5050621;28;20063;-65
2024/03/03 10:34:14;;;;;;;17.55;11.23;;;18.50;68.30;;;;;;5056737;28;20036;-65
2024/03/03 10:36:40;;;;;;;14.10;9.82;;;18.50;68.50;;;;;;5051126;28;20029;-65
2024/03/03 10:39:09;;;;;;;12.02;9.50;;;18.50;68.40;;;;;;5058173;28;20420;-64
2024/03/03 10:41:39;;;;;;;14.85;10.43;;;18.50;67.90;;;;;;5066722;28;20051;-64
2024/03/03 10:44:06;;;;;;;12.95;10.40;;;18.50;68.10;;;;;;5050670;28;20078;-64
2024/03/03 10:46:33;;;;;;;13.43;10.05;;;18.50;68.30;;;;;;5060502;28;20021;-65
2024/03/03 10:49:00;;;;;;;12.48;10.02;;;18.50;68.20;;;;;;5065016;28;20315;-65
2024/03/03 10:51:26;;;;;;;13.95;10.00;;;18.50;68.10;;;;;;5051095;28;20021;-64
2024/03/03 10:53:53;;;;;;;13.60;9.93;;;18.60;67.60;;;;;;5055102;28;20031;-65
2024/03/03 10:56:20;;;;;;;13.75;9.35;;;18.60;67.70;;;;;;5054526;28;20385;-64
2024/03/03 10:58:48;;;;;;;12.00;9.45;;;18.60;67.70;;;;;;5050730;28;20060;-65
2024/03/03 11:01:15;;;;;;;12.07;9.88;;;18.60;67.70;;;;;;5055987;28;20081;-64
2024/03/03 11:03:44;;;;;;;12.27;9.50;;;18.60;67.60;;;;;;5066932;28;20452;-64
2024/03/03 11:06:12;;;;;;;11.20;8.70;;;18.50;67.90;;;;;;5051117;28;20456;-65
2024/03/03 11:08:49;;;;;;;14.00;10.30;;;18.50;67.90;;;;;;5067364;28;20048;-65
2024/03/03 11:11:19;;;;;;;12.00;9.45;;;18.50;67.90;;;;;;5053586;28;20697;-64
2024/03/03 11:13:57;;;;;;;11.07;9.32;;;18.50;67.40;;;;;;5051652;28;20144;-65
2024/03/03 11:16:27;;;;;;;16.20;10.00;;;18.50;67.60;;;;;;5058968;28;20028;-65
2024/03/03 11:18:55;;;;;;;11.18;9.98;;;18.50;67.40;;;;;;5059043;28;20063;-64
2024/03/03 11:21:30;;;;;;;11.95;9.80;;;18.50;67.60;;;;;;5066173;28;20066;-64
2024/03/03 11:24:13;;;;;;;12.88;10.80;;;18.50;67.10;;;;;;5051615;28;20025;-64
2024/03/03 11:26:48;;;;;;;11.50;9.90;;;18.50;67.40;;;;;;5064618;28;20023;-65
2024/03/03 11:29:19;;;;;;;12.60;10.05;;;18.60;67.40;;;;;;5066264;28;20032;-64
2024/03/03 11:31:46;;;;;;;11.98;9.63;;;18.50;67.40;;;;;;5062506;28;20103;-65
2024/03/03 11:34:13;;;;;;;10.23;9.00;;;18.50;67.30;;;;;;5068511;28;20060;-64
2024/03/03 11:36:40;;;;;;;13.20;10.20;;;18.50;67.20;;;;;;5066245;28;20131;-65
2024/03/03 11:39:13;;;;;;;11.10;9.27;;;18.50;66.80;;;;;;5071983;28;20025;-65
2024/03/03 11:41:41;;;;;;;12.20;9.65;;;18.50;66.80;;;;;;5070389;28;20031;-65
2024/03/03 11:44:36;;;;;;;12.85;9.40;;;18.50;67.20;;;;;;5061385;28;20405;-65
2024/03/03 11:47:05;;;;;;;12.48;10.05;;;18.60;67.00;;;;;;5062397;28;20025;-66
2024/03/03 11:49:38;;;;;;;11.70;9.48;;;18.60;66.90;;;;;;5070542;28;20039;-65
2024/03/03 11:52:04;;;;;;;12.50;9.65;;;18.60;66.90;;;;;;5053340;28;20021;-65
2024/03/03 11:54:36;;;;;;;12.18;9.13;;;18.50;66.90;;;;;;5069576;28;20055;-65
2024/03/03 11:57:02;;;;;;;11.90;9.52;;;18.60;66.40;;;;;;5067947;28;20418;-65
2024/03/03 11:59:32;;;;;;;12.35;10.02;;;18.50;66.60;;;;;;5064547;28;20038;-65
2024/03/03 12:01:59;;;;;;;11.93;9.45;;;18.60;66.80;;;;;;5053392;28;20104;-64
2024/03/03 12:04:25;;;;;;;11.20;9.23;;;18.50;66.70;;;;;;5069335;28;20033;-63
2024/03/03 12:06:51;;;;;;;11.35;9.68;;;18.50;66.80;;;;;;5066153;28;20103;-64
2024/03/03 12:09:18;;;;;;;12.13;10.15;;;18.60;65.40;;;;;;5064197;28;20103;-64
2024/03/03 12:11:48;;;;;;;9.45;8.38;;;18.50;66.60;;;;;;5070149;22;20060;-61
2024/03/03 12:14:13;;;;;;;11.30;9.20;;;18.60;66.80;;;;;;5053097;28;20044;-61
2024/03/03 12:16:39;;;;;;;10.20;9.02;;;18.50;66.70;;;;;;5052944;28;20512;-61
2024/03/03 12:19:05;;;;;;;12.55;9.48;;;18.50;66.40;;;;;;5053103;28;20511;-61
2024/03/03 12:21:31;;;;;;;11.25;9.45;;;18.50;65.20;;;;;;5050348;28;20405;-61
2024/03/03 12:23:57;;;;;;;10.80;9.20;;;18.50;66.40;;;;;;5034235;28;20026;-60
2024/03/03 12:26:22;;;;;;;10.05;8.88;;;18.60;66.50;;;;;;5034140;28;20029;-61
2024/03/03 12:28:49;;;;;;;13.77;9.73;;;18.60;66.60;;;;;;5034293;28;20028;-61
2024/03/03 12:31:15;;;;;;;10.13;9.02;;;18.60;66.60;;;;;;5031601;28;20488;-61
2024/03/03 12:33:42;;;;;;;11.40;9.40;;;18.60;66.60;;;;;;5037493;28;20037;-62
2024/03/03 12:36:11;;;;;;;11.48;9.27;;;18.50;66.70;;;;;;5032769;28;20036;-61